createdAt,value
2023-09-14T00:01:43.879Z,13.00
2023-09-14T00:04:12.380Z,12.90
2023-09-14T00:06:40.804Z,12.90
2023-09-14T00:09:09.064Z,13.00
2023-09-14T00:11:37.907Z,13.00
2023-09-14T00:14:06.294Z,13.00
2023-09-14T00:16:36.100Z,13.20
2023-09-14T00:19:04.494Z,13.20
2023-09-14T00:21:33.475Z,13.20
2023-09-14T00:24:01.766Z,13.20
2023-09-14T00:26:30.005Z,13.20
2023-09-14T00:28:58.132Z,13.20
2023-09-14T00:31:26.495Z,13.10
2023-09-14T00:33:58.137Z,13.20
2023-09-14T00:36:26.755Z,13.10
2023-09-14T00:38:55.117Z,13.10
2023-09-14T00:41:23.359Z,13.00
2023-09-14T00:43:51.717Z,13.00
2023-09-14T00:46:19.911Z,13.00
2023-09-14T00:48:48.682Z,13.00
2023-09-14T00:51:18.745Z,13.00
2023-09-14T00:53:49.051Z,13.00
2023-09-14T00:56:17.282Z,13.00
2023-09-14T00:58:45.652Z,12.90
2023-09-14T01:01:15.836Z,12.90
2023-09-14T01:03:44.232Z,12.90
2023-09-14T01:06:17.538Z,13.00
2023-09-14T01:08:47.408Z,12.90
2023-09-14T01:11:16.017Z,12.90
2023-09-14T01:13:49.007Z,12.80
2023-09-14T01:16:20.139Z,12.90
2023-09-14T01:18:54.912Z,12.80
2023-09-14T01:21:47.288Z,13.00
2023-09-14T01:24:24.777Z,12.90
2023-09-14T01:26:54.502Z,12.90
2023-09-14T01:29:22.925Z,13.00
2023-09-14T01:31:51.086Z,13.00
2023-09-14T01:34:19.869Z,13.10
2023-09-14T01:36:52.595Z,13.10
2023-09-14T01:39:21.478Z,13.10
2023-09-14T01:41:55.956Z,13.20
2023-09-14T01:44:28.553Z,13.20
2023-09-14T01:46:57.269Z,13.10
2023-09-14T01:49:25.471Z,13.10
2023-09-14T01:51:54.035Z,13.10
2023-09-14T01:54:22.408Z,13.10
2023-09-14T01:56:50.853Z,13.10
2023-09-14T01:59:19.044Z,13.10
2023-09-14T02:01:51.821Z,13.10
2023-09-14T02:04:20.029Z,13.00
2023-09-14T02:06:48.352Z,13.10
2023-09-14T02:09:16.596Z,13.10
2023-09-14T02:11:47.801Z,13.00
2023-09-14T02:14:16.181Z,13.00
2023-09-14T02:16:44.451Z,13.00
2023-09-14T02:19:15.038Z,13.00
2023-09-14T02:21:43.307Z,12.90
2023-09-14T02:24:11.699Z,13.00
2023-09-14T02:26:40.351Z,13.00
2023-09-14T02:29:08.556Z,13.00
2023-09-14T02:31:37.008Z,13.00
2023-09-14T02:34:05.356Z,13.00
2023-09-14T02:36:37.207Z,13.00
2023-09-14T02:39:05.506Z,13.00
2023-09-14T02:41:34.121Z,13.00
2023-09-14T02:44:02.523Z,13.00
2023-09-14T02:46:32.229Z,13.00
2023-09-14T02:49:00.540Z,13.00
2023-09-14T02:51:28.771Z,13.00
2023-09-14T02:53:58.396Z,13.10
2023-09-14T02:56:27.093Z,13.10
2023-09-14T02:58:55.407Z,13.10
2023-09-14T03:01:23.758Z,13.10
2023-09-14T03:03:52.327Z,13.10
2023-09-14T03:06:22.113Z,13.00
2023-09-14T03:08:50.328Z,13.00
2023-09-14T03:11:20.131Z,13.00
2023-09-14T03:13:48.313Z,12.90
2023-09-14T03:16:16.789Z,13.00
2023-09-14T03:18:45.343Z,13.00
2023-09-14T03:21:23.836Z,13.00
2023-09-14T03:23:52.345Z,13.00
2023-09-14T03:26:22.144Z,13.00
2023-09-14T03:28:51.177Z,12.90
2023-09-14T03:31:19.807Z,13.00
2023-09-14T03:33:48.721Z,12.90
2023-09-14T03:36:18.210Z,12.90
2023-09-14T03:38:48.288Z,12.90
2023-09-14T03:41:16.756Z,12.90
2023-09-14T03:43:46.492Z,12.90
2023-09-14T03:46:16.130Z,12.90
2023-09-14T03:48:44.994Z,12.80
2023-09-14T03:51:13.602Z,12.90
2023-09-14T03:53:45.645Z,12.90
2023-09-14T03:56:13.881Z,12.90
2023-09-14T03:58:44.015Z,13.00
2023-09-14T04:01:14.022Z,13.10
2023-09-14T04:03:42.349Z,13.00
2023-09-14T04:06:10.799Z,13.10
2023-09-14T04:08:39.043Z,13.10
2023-09-14T04:11:07.265Z,13.10
2023-09-14T04:13:37.081Z,13.10
2023-09-14T04:16:06.652Z,13.10
2023-09-14T04:18:40.606Z,12.90
2023-09-14T04:21:09.228Z,13.10
2023-09-14T04:23:37.388Z,13.10
2023-09-14T04:26:06.055Z,13.20
2023-09-14T04:28:34.278Z,13.10
2023-09-14T04:31:04.104Z,13.10
2023-09-14T04:33:32.905Z,13.10
2023-09-14T04:36:06.844Z,13.10
2023-09-14T04:38:35.231Z,13.10
2023-09-14T04:41:06.926Z,13.10
2023-09-14T04:43:35.448Z,13.10
2023-09-14T04:46:05.548Z,13.10
2023-09-14T04:48:34.060Z,13.10
2023-09-14T04:51:03.766Z,13.10
2023-09-14T04:53:32.142Z,13.10
2023-09-14T04:56:00.336Z,13.10
2023-09-14T04:58:31.607Z,13.10
2023-09-14T05:01:02.281Z,13.10
2023-09-14T05:03:32.983Z,13.10
2023-09-14T05:06:01.263Z,13.10
2023-09-14T05:08:30.983Z,13.20
2023-09-14T05:10:59.689Z,13.20
2023-09-14T05:13:30.186Z,13.20
2023-09-14T05:15:58.627Z,13.20
2023-09-14T05:18:26.849Z,13.30
2023-09-14T05:20:55.471Z,13.30
2023-09-14T05:23:23.761Z,13.30
2023-09-14T05:25:53.481Z,13.30
2023-09-14T05:28:21.862Z,13.30
2023-09-14T05:30:52.205Z,13.30
2023-09-14T05:33:20.536Z,13.30
2023-09-14T05:35:49.703Z,13.40
2023-09-14T05:38:17.922Z,13.40
2023-09-14T05:40:47.423Z,13.50
2023-09-14T05:43:18.317Z,13.50
2023-09-14T05:45:46.753Z,13.50
2023-09-14T05:48:14.956Z,13.60
2023-09-14T05:50:43.340Z,13.50
2023-09-14T05:53:11.683Z,13.40
2023-09-14T05:55:41.796Z,13.50
2023-09-14T05:58:10.109Z,13.60
2023-09-14T06:00:39.746Z,13.70
2023-09-14T06:03:08.255Z,13.90
2023-09-14T06:05:36.681Z,14.00
2023-09-14T06:08:07.361Z,14.00
2023-09-14T06:10:35.866Z,14.00
2023-09-14T06:13:11.891Z,14.00
2023-09-14T06:15:41.984Z,14.10
2023-09-14T06:18:11.098Z,14.10
2023-09-14T06:20:39.478Z,14.10
2023-09-14T06:23:08.150Z,14.20
2023-09-14T06:25:36.405Z,14.20
2023-09-14T06:28:04.698Z,14.30
2023-09-14T06:30:33.141Z,14.50
2023-09-14T06:33:05.139Z,14.60
2023-09-14T06:35:33.386Z,14.50
2023-09-14T06:38:01.506Z,14.40
2023-09-14T06:40:29.902Z,14.40
2023-09-14T06:42:58.620Z,14.40
2023-09-14T06:45:27.134Z,14.30
2023-09-14T06:47:55.365Z,14.20
2023-09-14T06:50:25.168Z,14.10
2023-09-14T06:52:53.405Z,14.20
2023-09-14T06:55:21.966Z,14.10
2023-09-14T06:57:50.463Z,14.20
2023-09-14T07:00:22.621Z,14.30
2023-09-14T07:02:52.306Z,14.40
2023-09-14T07:05:20.741Z,14.40
2023-09-14T07:07:50.549Z,14.50
2023-09-14T07:10:18.876Z,14.40
2023-09-14T07:12:47.327Z,14.20
2023-09-14T07:15:17.599Z,14.10
2023-09-14T07:17:45.830Z,14.40
2023-09-14T07:20:14.142Z,14.30
2023-09-14T07:22:42.346Z,14.10
2023-09-14T07:25:12.121Z,14.10
2023-09-14T07:27:40.293Z,14.00
2023-09-14T07:30:09.367Z,13.90
2023-09-14T07:32:37.720Z,13.90
2023-09-14T07:35:06.285Z,13.80
2023-09-14T07:37:34.667Z,13.90
2023-09-14T07:40:04.127Z,14.10
2023-09-14T07:42:33.891Z,14.10
2023-09-14T07:45:02.071Z,14.30
2023-09-14T07:47:31.189Z,14.20
2023-09-14T07:49:59.627Z,14.40
2023-09-14T07:52:29.449Z,14.50
2023-09-14T07:54:57.837Z,14.50
2023-09-14T07:57:28.883Z,14.50
2023-09-14T07:59:58.601Z,14.50
2023-09-14T08:02:28.718Z,14.50
2023-09-14T08:04:57.144Z,14.40
2023-09-14T08:07:25.519Z,14.60
2023-09-14T08:09:53.911Z,14.50
2023-09-14T08:12:22.275Z,14.50
2023-09-14T08:14:53.104Z,14.40
2023-09-14T08:17:22.788Z,14.50
2023-09-14T08:19:51.061Z,14.60
2023-09-14T08:22:23.811Z,15.00
2023-09-14T08:24:52.367Z,15.00
2023-09-14T08:27:20.762Z,15.30
2023-09-14T08:29:48.986Z,15.30
2023-09-14T08:32:17.529Z,15.40
2023-09-14T08:34:47.354Z,15.70
2023-09-14T08:37:15.607Z,15.60
2023-09-14T08:39:44.193Z,15.40
2023-09-14T08:42:13.107Z,15.70
2023-09-14T08:44:41.699Z,16.00
2023-09-14T08:47:11.979Z,15.90
2023-09-14T08:49:40.672Z,15.40
2023-09-14T08:52:11.757Z,14.90
2023-09-14T08:54:40.404Z,14.90
2023-09-14T08:57:09.923Z,15.10
2023-09-14T08:59:38.538Z,14.90
2023-09-14T09:02:08.332Z,14.60
2023-09-14T09:04:36.758Z,14.90
2023-09-14T09:07:05.256Z,15.30
2023-09-14T09:09:35.013Z,15.40
2023-09-14T09:12:03.269Z,14.80
2023-09-14T09:14:33.151Z,15.00
2023-09-14T09:17:01.515Z,14.80
2023-09-14T09:19:30.004Z,14.70
2023-09-14T09:21:58.495Z,15.10
2023-09-14T09:24:29.637Z,15.50
2023-09-14T09:27:00.669Z,15.50
2023-09-14T09:29:29.044Z,15.40
2023-09-14T09:31:57.472Z,15.10
2023-09-14T09:34:27.051Z,14.90
2023-09-14T09:36:56.103Z,14.60
2023-09-14T09:39:24.793Z,14.70
2023-09-14T09:41:53.059Z,14.70
2023-09-14T09:44:28.364Z,14.70
2023-09-14T09:46:58.506Z,14.80
2023-09-14T09:49:30.012Z,14.90
2023-09-14T09:52:01.365Z,15.70
2023-09-14T09:54:29.749Z,15.70
2023-09-14T09:56:59.213Z,15.70
2023-09-14T09:59:31.080Z,15.50
2023-09-14T10:01:59.460Z,15.50
2023-09-14T10:04:29.463Z,15.40
2023-09-14T10:06:58.421Z,15.10
2023-09-14T10:09:29.759Z,14.70
2023-09-14T10:12:02.313Z,14.70
2023-09-14T10:14:37.260Z,14.90
2023-09-14T10:17:09.036Z,15.00
2023-09-14T10:19:37.641Z,14.80
2023-09-14T10:22:06.033Z,14.80
2023-09-14T10:24:34.688Z,14.90
2023-09-14T10:27:06.204Z,15.00
2023-09-14T10:29:37.412Z,15.50
2023-09-14T10:32:07.156Z,15.30
2023-09-14T10:34:37.792Z,15.60
2023-09-14T10:37:07.079Z,15.60
2023-09-14T10:39:36.194Z,15.20
2023-09-14T10:42:04.611Z,15.60
2023-09-14T10:44:34.449Z,15.90
2023-09-14T10:47:05.087Z,16.10
2023-09-14T10:49:35.041Z,16.20
2023-09-14T10:52:04.015Z,15.80
2023-09-14T10:54:33.622Z,15.70
2023-09-14T10:57:02.824Z,15.40
2023-09-14T10:59:50.149Z,15.40
2023-09-14T11:02:47.578Z,15.30
2023-09-14T11:05:20.647Z,15.10
2023-09-14T11:07:57.267Z,15.10
2023-09-14T11:10:26.456Z,16.00
2023-09-14T11:13:15.877Z,15.90
2023-09-14T11:15:46.115Z,15.90
2023-09-14T11:18:18.860Z,15.90
2023-09-14T11:20:50.580Z,15.90
2023-09-14T11:23:21.129Z,16.20
2023-09-14T11:26:08.128Z,16.40
2023-09-14T11:28:38.345Z,16.30
2023-09-14T11:31:07.695Z,16.80
2023-09-14T11:33:36.447Z,17.00
2023-09-14T11:36:08.758Z,16.70
2023-09-14T11:38:38.687Z,16.10
2023-09-14T11:41:24.424Z,16.50
2023-09-14T11:44:26.799Z,16.00
2023-09-14T11:46:57.569Z,15.90
2023-09-14T11:49:29.084Z,16.10
2023-09-14T11:51:59.149Z,15.90
2023-09-14T11:54:33.854Z,16.00
2023-09-14T11:57:02.376Z,16.20
2023-09-14T11:59:31.717Z,16.60
2023-09-14T12:02:01.383Z,16.30
2023-09-14T12:04:31.256Z,16.80
2023-09-14T12:07:01.222Z,17.00
2023-09-14T12:09:39.716Z,16.90
2023-09-14T12:12:10.861Z,16.60
2023-09-14T12:14:42.777Z,16.60
2023-09-14T12:17:21.485Z,16.80
2023-09-14T12:19:53.899Z,16.60
2023-09-14T12:22:24.154Z,16.40
2023-09-14T12:24:53.391Z,16.30
2023-09-14T12:27:21.995Z,16.30
2023-09-14T12:29:51.202Z,16.90
2023-09-14T12:32:19.581Z,16.40
2023-09-14T12:34:48.342Z,16.60
2023-09-14T12:37:19.136Z,16.60
2023-09-14T12:39:53.754Z,16.80
2023-09-14T12:42:22.732Z,17.00
2023-09-14T12:44:51.397Z,17.10
2023-09-14T12:47:22.296Z,16.80
2023-09-14T12:49:50.849Z,16.60
2023-09-14T12:52:22.296Z,16.90
2023-09-14T12:54:52.092Z,17.40
2023-09-14T12:57:21.582Z,17.00
2023-09-14T13:00:01.975Z,16.80
2023-09-14T13:02:30.771Z,16.50
2023-09-14T13:05:00.244Z,17.30
2023-09-14T13:07:28.738Z,17.20
2023-09-14T13:10:11.060Z,16.60
2023-09-14T13:12:44.457Z,16.50
2023-09-14T13:15:20.198Z,16.40
2023-09-14T13:17:48.609Z,16.30
2023-09-14T13:20:16.928Z,16.20
2023-09-14T13:22:45.338Z,16.50
2023-09-14T13:25:14.964Z,17.10
2023-09-14T13:27:44.318Z,16.80
2023-09-14T13:30:13.494Z,16.40
2023-09-14T13:32:42.454Z,16.70
2023-09-14T13:35:11.548Z,16.50
2023-09-14T13:37:40.748Z,17.10
2023-09-14T13:40:15.881Z,16.70
2023-09-14T13:42:45.656Z,16.70
2023-09-14T13:45:14.610Z,16.50
2023-09-14T13:47:48.150Z,16.60
2023-09-14T13:50:17.880Z,15.90
2023-09-14T13:52:46.327Z,16.20
2023-09-14T13:55:15.063Z,16.50
2023-09-14T13:57:43.291Z,16.30
2023-09-14T14:00:14.098Z,15.90
2023-09-14T14:02:43.372Z,15.70
2023-09-14T14:05:11.908Z,15.50
2023-09-14T14:07:40.081Z,15.00
2023-09-14T14:10:09.586Z,15.40
2023-09-14T14:12:39.519Z,15.60
2023-09-14T14:15:10.085Z,15.30
2023-09-14T14:17:42.384Z,15.60
2023-09-14T14:20:11.291Z,15.70
2023-09-14T14:22:39.520Z,15.00
2023-09-14T14:25:08.847Z,15.00
2023-09-14T14:27:40.466Z,15.30
2023-09-14T14:30:09.774Z,15.20
2023-09-14T14:32:38.005Z,14.80
2023-09-14T14:35:09.566Z,14.90
2023-09-14T14:37:37.979Z,15.40
2023-09-14T14:40:07.461Z,15.50
2023-09-14T14:42:36.436Z,15.50
2023-09-14T14:45:07.028Z,15.10
2023-09-14T14:47:36.772Z,15.00
2023-09-14T14:50:05.220Z,15.00
2023-09-14T14:52:36.510Z,14.60
2023-09-14T14:55:06.492Z,14.60
2023-09-14T14:57:34.770Z,14.70
2023-09-14T15:00:05.188Z,15.00
2023-09-14T15:02:33.520Z,15.00
2023-09-14T15:05:01.895Z,15.40
2023-09-14T15:07:30.048Z,15.40
2023-09-14T15:09:59.843Z,15.70
2023-09-14T15:12:28.303Z,15.60
2023-09-14T15:14:57.143Z,15.30
2023-09-14T15:17:25.423Z,14.80
2023-09-14T15:19:53.782Z,14.50
2023-09-14T15:22:22.131Z,14.40
2023-09-14T15:24:50.425Z,14.50
2023-09-14T15:27:20.194Z,14.90
2023-09-14T15:29:49.381Z,15.10
2023-09-14T15:32:17.552Z,14.90
2023-09-14T15:34:45.877Z,14.70
2023-09-14T15:37:17.025Z,14.70
2023-09-14T15:39:45.337Z,14.80
2023-09-14T15:42:13.731Z,14.70
2023-09-14T15:44:45.266Z,14.70
2023-09-14T15:47:13.616Z,14.40
2023-09-14T15:49:42.402Z,14.50
2023-09-14T15:52:10.642Z,14.80
2023-09-14T15:54:38.934Z,14.90
2023-09-14T15:57:07.259Z,14.90
2023-09-14T15:59:35.397Z,15.00
2023-09-14T16:02:05.419Z,14.90
2023-09-14T16:04:33.827Z,14.90
2023-09-14T16:07:02.452Z,14.70
2023-09-14T16:09:30.762Z,14.90
2023-09-14T16:12:01.813Z,14.60
2023-09-14T16:14:30.041Z,14.30
2023-09-14T16:16:59.363Z,14.70
2023-09-14T16:19:28.962Z,14.70
2023-09-14T16:21:57.655Z,14.20
2023-09-14T16:24:27.596Z,14.30
2023-09-14T16:26:55.855Z,14.00
2023-09-14T16:29:24.336Z,14.10
2023-09-14T16:31:52.574Z,13.90
2023-09-14T16:34:24.320Z,13.60
2023-09-14T16:36:54.048Z,13.70
2023-09-14T16:39:22.222Z,13.70
2023-09-14T16:41:50.774Z,13.90
2023-09-14T16:44:18.977Z,13.90
2023-09-14T16:46:47.128Z,13.70
2023-09-14T16:49:25.559Z,13.70
2023-09-14T16:51:55.396Z,13.80
2023-09-14T16:54:25.081Z,13.40
2023-09-14T16:56:54.052Z,13.20
2023-09-14T16:59:22.467Z,13.30
2023-09-14T17:01:50.802Z,13.40
2023-09-14T17:04:20.507Z,13.40
2023-09-14T17:06:49.545Z,13.30
2023-09-14T17:09:19.207Z,13.30
2023-09-14T17:11:47.641Z,13.20
2023-09-14T17:14:21.718Z,13.00
2023-09-14T17:16:50.057Z,12.70
2023-09-14T17:19:18.231Z,12.90
2023-09-14T17:21:47.180Z,12.80
2023-09-14T17:24:15.498Z,12.70
2023-09-14T17:26:47.665Z,12.70
2023-09-14T17:29:15.918Z,12.70
2023-09-14T17:31:44.268Z,12.60
2023-09-14T17:34:12.490Z,12.50
2023-09-14T17:36:43.766Z,12.30
2023-09-14T17:39:12.064Z,12.30
2023-09-14T17:41:40.277Z,12.20
2023-09-14T17:44:10.082Z,12.20
2023-09-14T17:46:38.439Z,12.20
2023-09-14T17:49:07.997Z,12.00
2023-09-14T17:51:36.471Z,11.90
2023-09-14T17:54:05.246Z,11.80
2023-09-14T17:56:33.871Z,11.80
2023-09-14T17:59:03.605Z,11.80
2023-09-14T18:01:33.570Z,11.70
2023-09-14T18:04:02.329Z,11.80
2023-09-14T18:06:30.913Z,11.60
2023-09-14T18:08:59.319Z,11.60
2023-09-14T18:11:27.688Z,11.50
2023-09-14T18:13:56.584Z,11.40
2023-09-14T18:16:24.962Z,11.40
2023-09-14T18:18:54.659Z,11.20
2023-09-14T18:21:23.787Z,11.20
2023-09-14T18:23:59.598Z,11.20
2023-09-14T18:26:27.976Z,11.20
2023-09-14T18:28:58.309Z,11.10
2023-09-14T18:31:26.869Z,11.00
2023-09-14T18:33:56.629Z,10.90
2023-09-14T18:36:25.773Z,10.90
2023-09-14T18:38:54.084Z,10.90
2023-09-14T18:41:22.318Z,10.70
2023-09-14T18:43:51.193Z,10.70
2023-09-14T18:46:21.457Z,10.70
2023-09-14T18:48:52.660Z,10.70
2023-09-14T18:51:22.340Z,10.50
2023-09-14T18:53:50.546Z,10.50
2023-09-14T18:56:18.766Z,10.50
2023-09-14T18:59:08.998Z,10.40
2023-09-14T19:01:35.416Z,10.40
2023-09-14T19:04:05.919Z,10.40
2023-09-14T19:06:35.730Z,10.30
2023-09-14T19:09:04.320Z,10.40
2023-09-14T19:11:32.471Z,10.30
2023-09-14T19:14:02.486Z,10.20
2023-09-14T19:16:32.757Z,10.20
2023-09-14T19:19:01.026Z,10.20
2023-09-14T19:21:31.844Z,10.20
2023-09-14T19:24:01.609Z,10.20
2023-09-14T19:26:31.201Z,10.10
2023-09-14T19:28:59.818Z,10.00
2023-09-14T19:31:28.252Z,9.90
2023-09-14T19:33:56.766Z,9.90
2023-09-14T19:36:26.552Z,9.90
2023-09-14T19:38:56.012Z,9.90
2023-09-14T19:41:26.840Z,9.90
2023-09-14T19:43:55.465Z,9.90
2023-09-14T19:46:23.705Z,9.80
2023-09-14T19:48:52.300Z,9.80
2023-09-14T19:51:21.000Z,9.70
2023-09-14T19:53:49.222Z,9.70
2023-09-14T19:56:17.760Z,9.70
2023-09-14T19:58:47.549Z,9.60
2023-09-14T20:01:16.284Z,9.60
2023-09-14T20:03:44.933Z,9.60
2023-09-14T20:06:13.262Z,9.60
2023-09-14T20:08:41.566Z,9.50
2023-09-14T20:11:10.075Z,9.50
2023-09-14T20:13:39.406Z,9.60
2023-09-14T20:16:09.407Z,9.50
2023-09-14T20:18:43.188Z,9.40
2023-09-14T20:21:11.583Z,9.40
2023-09-14T20:23:40.143Z,9.40
2023-09-14T20:26:08.679Z,9.30
2023-09-14T20:28:38.005Z,9.20
2023-09-14T20:31:06.221Z,9.10
2023-09-14T20:33:38.774Z,9.10
2023-09-14T20:36:07.140Z,9.10
2023-09-14T20:38:43.415Z,9.10
2023-09-14T20:41:15.458Z,9.10
2023-09-14T20:43:43.797Z,9.00
2023-09-14T20:46:12.101Z,9.00
2023-09-14T20:48:41.794Z,9.00
2023-09-14T20:51:11.451Z,9.10
2023-09-14T20:53:41.703Z,9.10
2023-09-14T20:56:11.109Z,9.00
2023-09-14T20:58:39.764Z,8.90
2023-09-14T21:01:10.091Z,8.90
2023-09-14T21:03:39.155Z,8.90
2023-09-14T21:06:08.823Z,8.90
2023-09-14T21:08:37.686Z,8.80
2023-09-14T21:13:35.211Z,8.80
2023-09-14T21:16:04.856Z,8.80
2023-09-14T21:18:36.539Z,8.80
2023-09-14T21:21:05.186Z,8.90
2023-09-14T21:23:34.957Z,8.90
2023-09-14T21:26:03.190Z,8.80
2023-09-14T21:28:31.405Z,8.80
2023-09-14T21:30:59.906Z,8.80
2023-09-14T21:33:28.120Z,8.80
2023-09-14T21:35:57.278Z,8.70
2023-09-14T21:38:26.448Z,8.70
2023-09-14T21:41:00.076Z,8.60
2023-09-14T21:43:29.249Z,8.60
2023-09-14T21:45:57.624Z,8.60
2023-09-14T21:48:26.132Z,8.60
2023-09-14T21:50:54.356Z,8.60
2023-09-14T21:53:22.534Z,8.70
2023-09-14T21:55:51.053Z,8.70
2023-09-14T21:58:20.998Z,8.60
2023-09-14T22:00:49.623Z,8.50
2023-09-14T22:03:18.058Z,8.50
2023-09-14T22:05:50.312Z,8.50
2023-09-14T22:08:18.612Z,8.60
2023-09-14T22:10:47.109Z,8.50
2023-09-14T22:13:15.938Z,8.50
2023-09-14T22:15:49.161Z,8.40
2023-09-14T22:18:19.744Z,8.30
2023-09-14T22:20:48.260Z,8.30
2023-09-14T22:23:18.538Z,8.30
2023-09-14T22:25:46.816Z,8.30
2023-09-14T22:28:16.763Z,8.30
2023-09-14T22:30:47.470Z,8.40
2023-09-14T22:33:17.868Z,8.40
2023-09-14T22:35:46.118Z,8.40
2023-09-14T22:38:14.345Z,8.30
2023-09-14T22:40:42.897Z,8.30
2023-09-14T22:43:11.399Z,8.30
2023-09-14T22:45:39.687Z,8.30
2023-09-14T22:48:12.237Z,8.20
2023-09-14T22:50:41.874Z,8.20
2023-09-14T22:53:11.318Z,8.20
2023-09-14T22:55:40.110Z,8.20
2023-09-14T22:58:08.587Z,8.30
2023-09-14T23:00:40.595Z,8.30
2023-09-14T23:03:10.582Z,8.30
2023-09-14T23:05:39.259Z,8.30
2023-09-14T23:08:09.606Z,8.40
2023-09-14T23:10:38.892Z,8.50
2023-09-14T23:13:10.028Z,8.50
2023-09-14T23:15:40.026Z,8.50
2023-09-14T23:18:08.423Z,8.60
2023-09-14T23:20:40.344Z,8.50
2023-09-14T23:23:08.808Z,8.40
2023-09-14T23:25:39.060Z,8.30
2023-09-14T23:28:07.564Z,8.30
2023-09-14T23:30:35.846Z,8.30
2023-09-14T23:33:04.555Z,8.50
2023-09-14T23:35:34.312Z,8.60
2023-09-14T23:38:06.975Z,8.70
2023-09-14T23:40:37.911Z,8.70
2023-09-14T23:43:07.982Z,8.70
2023-09-14T23:45:37.226Z,8.60
2023-09-14T23:48:06.242Z,8.70
2023-09-14T23:50:34.500Z,8.70
2023-09-14T23:53:04.640Z,8.70
2023-09-14T23:55:32.888Z,8.60
2023-09-14T23:58:01.144Z,8.70
